createdAt,value
2022-10-22T00:02:27.584Z,83.67
2022-10-22T00:04:54.595Z,83.68
2022-10-22T00:07:21.234Z,83.52
2022-10-22T00:09:47.642Z,83.69
2022-10-22T00:12:15.370Z,83.68
2022-10-22T00:14:42.984Z,83.50
2022-10-22T00:17:11.477Z,83.63
2022-10-22T00:19:38.936Z,83.62
2022-10-22T00:22:05.794Z,83.60
2022-10-22T00:24:33.842Z,83.44
2022-10-22T00:27:00.518Z,83.42
2022-10-22T00:29:27.072Z,83.01
2022-10-22T00:31:53.462Z,83.71
2022-10-22T00:34:22.179Z,83.79
2022-10-22T00:36:50.101Z,83.94
2022-10-22T00:39:18.297Z,83.92
2022-10-22T00:41:46.944Z,84.11
2022-10-22T00:44:50.804Z,84.01
2022-10-22T00:47:18.776Z,84.08
2022-10-22T00:49:46.741Z,84.02
2022-10-22T00:52:14.070Z,83.96
2022-10-22T00:54:41.561Z,84.29
2022-10-22T00:57:08.710Z,83.98
2022-10-22T00:59:35.522Z,84.13
2022-10-22T01:02:01.940Z,84.36
2022-10-22T01:04:28.331Z,84.56
2022-10-22T01:06:54.780Z,84.51
2022-10-22T01:09:43.198Z,84.24
2022-10-22T01:12:23.127Z,84.07
2022-10-22T01:15:07.833Z,84.07
2022-10-22T01:17:43.051Z,84.30
2022-10-22T01:20:35.593Z,84.39
2022-10-22T01:23:22.225Z,84.26
2022-10-22T01:25:58.381Z,84.16
2022-10-22T01:28:49.640Z,83.90
2022-10-22T01:31:18.081Z,83.85
2022-10-22T01:33:47.748Z,83.84
2022-10-22T01:36:16.631Z,83.79
2022-10-22T01:38:45.926Z,83.94
2022-10-22T01:41:13.934Z,83.78
2022-10-22T01:43:40.361Z,83.59
2022-10-22T01:46:07.625Z,83.83
2022-10-22T01:48:37.030Z,83.93
2022-10-22T01:51:03.710Z,84.06
2022-10-22T01:53:33.224Z,83.83
2022-10-22T01:56:17.680Z,84.04
2022-10-22T01:59:04.491Z,84.03
2022-10-22T02:01:41.443Z,84.23
2022-10-22T02:04:18.171Z,84.46
2022-10-22T02:06:47.732Z,83.85
2022-10-22T02:09:17.636Z,84.30
2022-10-22T02:11:45.859Z,84.49
2022-10-22T02:14:14.879Z,84.74
2022-10-22T02:16:44.777Z,84.88
2022-10-22T02:19:25.198Z,84.76
2022-10-22T02:21:52.737Z,84.86
2022-10-22T02:24:20.273Z,84.71
2022-10-22T02:27:06.667Z,84.81
2022-10-22T02:29:40.787Z,84.61
2022-10-22T02:32:11.272Z,85.11
2022-10-22T02:34:38.335Z,84.90
2022-10-22T02:37:06.411Z,85.04
2022-10-22T02:39:33.910Z,84.91
2022-10-22T02:42:02.341Z,85.45
2022-10-22T02:44:28.810Z,85.71
2022-10-22T02:46:55.509Z,85.42
2022-10-22T02:49:22.111Z,85.13
2022-10-22T02:51:48.789Z,84.94
2022-10-22T02:54:15.374Z,85.02
2022-10-22T02:56:42.125Z,85.16
2022-10-22T02:59:08.520Z,85.14
2022-10-22T03:01:34.919Z,84.90
2022-10-22T03:04:01.343Z,84.96
2022-10-22T03:06:27.747Z,85.14
2022-10-22T03:08:55.679Z,85.13
2022-10-22T03:11:22.169Z,85.03
2022-10-22T03:13:48.583Z,85.10
2022-10-22T03:16:14.978Z,85.26
2022-10-22T03:18:41.358Z,85.25
2022-10-22T03:21:25.292Z,84.90
2022-10-22T03:23:52.283Z,84.59
2022-10-22T03:26:18.829Z,84.67
2022-10-22T03:28:46.710Z,84.50
2022-10-22T03:31:13.247Z,83.89
2022-10-22T03:33:39.627Z,84.07
2022-10-22T03:36:07.806Z,84.42
2022-10-22T03:38:37.115Z,84.85
2022-10-22T03:41:03.890Z,84.44
2022-10-22T03:43:30.450Z,84.51
2022-10-22T03:45:56.867Z,84.58
2022-10-22T03:48:23.254Z,84.68
2022-10-22T03:50:49.682Z,84.47
2022-10-22T03:53:16.082Z,84.40
2022-10-22T03:55:42.778Z,84.43
2022-10-22T03:58:09.531Z,84.30
2022-10-22T04:00:36.221Z,84.49
2022-10-22T04:03:02.916Z,84.45
2022-10-22T04:05:29.369Z,84.71
2022-10-22T04:07:55.791Z,84.59
2022-10-22T04:10:22.179Z,84.67
2022-10-22T04:12:48.627Z,84.45
2022-10-22T04:15:15.062Z,84.04
2022-10-22T04:17:41.823Z,84.06
2022-10-22T04:20:08.952Z,84.15
2022-10-22T04:22:35.991Z,84.24
2022-10-22T04:25:04.641Z,84.12
2022-10-22T04:27:32.324Z,84.14
2022-10-22T04:29:58.907Z,83.77
2022-10-22T04:32:26.815Z,83.85
2022-10-22T04:34:53.219Z,83.94
2022-10-22T04:37:20.337Z,83.91
2022-10-22T04:39:46.746Z,84.07
2022-10-22T04:42:13.206Z,84.49
2022-10-22T04:44:39.639Z,84.43
2022-10-22T04:47:06.058Z,85.42
2022-10-22T04:49:32.433Z,85.41
2022-10-22T04:51:58.870Z,85.80
2022-10-22T04:54:27.801Z,86.16
2022-10-22T04:56:58.378Z,86.18
2022-10-22T04:59:24.777Z,86.38
2022-10-22T05:01:51.181Z,86.83
2022-10-22T05:04:19.542Z,87.34
2022-10-22T05:06:46.247Z,87.06
2022-10-22T05:09:16.258Z,87.01
2022-10-22T05:11:48.474Z,87.28
2022-10-22T05:14:18.523Z,87.41
2022-10-22T05:16:47.678Z,87.22
2022-10-22T05:19:26.663Z,87.42
2022-10-22T05:21:55.306Z,87.55
2022-10-22T05:24:22.063Z,87.63
2022-10-22T05:26:50.804Z,87.97
2022-10-22T05:29:17.219Z,88.08
2022-10-22T05:31:43.631Z,88.10
2022-10-22T05:34:10.126Z,88.41
2022-10-22T05:36:36.793Z,88.45
2022-10-22T05:39:03.773Z,88.27
2022-10-22T05:41:30.333Z,88.51
2022-10-22T05:43:58.425Z,88.24
2022-10-22T05:46:28.196Z,88.24
2022-10-22T05:48:59.762Z,88.58
2022-10-22T05:51:31.646Z,88.22
2022-10-22T05:54:01.798Z,88.51
2022-10-22T05:56:29.976Z,88.21
2022-10-22T05:58:56.809Z,88.26
2022-10-22T06:01:27.302Z,88.13
2022-10-22T06:03:58.713Z,88.16
2022-10-22T06:06:31.313Z,87.86
2022-10-22T06:09:02.364Z,87.77
2022-10-22T06:11:32.485Z,87.42
2022-10-22T06:14:01.486Z,87.54
2022-10-22T06:16:29.950Z,87.41
2022-10-22T06:18:58.489Z,86.96
2022-10-22T06:21:24.888Z,87.10
2022-10-22T06:23:51.271Z,86.73
2022-10-22T06:26:17.876Z,86.41
2022-10-22T06:28:44.326Z,86.51
2022-10-22T06:31:10.767Z,86.42
2022-10-22T06:33:42.221Z,86.49
2022-10-22T06:36:14.755Z,86.42
2022-10-22T06:38:41.688Z,86.59
2022-10-22T06:41:13.726Z,86.57
2022-10-22T06:43:41.102Z,86.50
2022-10-22T06:46:14.827Z,86.40
2022-10-22T06:48:49.346Z,86.36
2022-10-22T06:51:15.758Z,86.01
2022-10-22T06:53:42.183Z,86.03
2022-10-22T06:56:11.128Z,85.67
2022-10-22T06:58:37.714Z,85.65
2022-10-22T07:01:09.711Z,85.54
2022-10-22T07:03:36.652Z,85.65
2022-10-22T07:06:05.542Z,85.41
2022-10-22T07:08:32.890Z,85.52
2022-10-22T07:11:07.020Z,86.10
2022-10-22T07:13:33.841Z,86.69
2022-10-22T07:16:00.246Z,86.48
2022-10-22T07:18:26.843Z,86.19
2022-10-22T07:20:53.460Z,86.03
2022-10-22T07:23:19.851Z,86.02
2022-10-22T07:25:46.465Z,85.95
2022-10-22T07:28:13.725Z,85.71
2022-10-22T07:30:40.296Z,85.54
2022-10-22T07:33:07.385Z,85.44
2022-10-22T07:35:34.416Z,85.89
2022-10-22T07:38:01.091Z,86.10
2022-10-22T07:40:27.542Z,86.06
2022-10-22T07:42:53.931Z,85.91
2022-10-22T07:45:20.359Z,85.54
2022-10-22T07:47:47.977Z,85.30
2022-10-22T07:50:15.032Z,85.04
2022-10-22T07:52:41.789Z,85.08
2022-10-22T07:55:08.874Z,85.36
2022-10-22T07:57:37.134Z,85.63
2022-10-22T08:00:05.827Z,86.15
2022-10-22T08:02:38.673Z,86.56
2022-10-22T08:05:05.911Z,86.51
2022-10-22T08:07:32.395Z,86.66
2022-10-22T08:09:58.815Z,86.44
2022-10-22T08:12:25.339Z,86.26
2022-10-22T08:14:51.769Z,85.74
2022-10-22T08:17:18.175Z,86.09
2022-10-22T08:19:44.626Z,85.72
2022-10-22T08:22:11.027Z,85.21
2022-10-22T08:24:37.562Z,84.95
2022-10-22T08:27:04.339Z,84.28
2022-10-22T08:29:30.764Z,84.33
2022-10-22T08:31:57.354Z,84.05
2022-10-22T08:34:23.736Z,83.88
2022-10-22T08:36:50.159Z,83.32
2022-10-22T08:39:16.577Z,83.01
2022-10-22T08:42:16.477Z,83.07
2022-10-22T08:44:48.986Z,82.51
2022-10-22T08:47:37.525Z,81.65
2022-10-22T08:50:04.743Z,82.56
2022-10-22T08:52:34.240Z,81.10
2022-10-22T08:55:02.423Z,81.28
2022-10-22T09:00:15.200Z,81.46
2022-10-22T09:03:19.521Z,81.54
2022-10-22T09:06:02.367Z,80.37
2022-10-22T09:08:29.781Z,80.42
2022-10-22T09:11:03.391Z,81.14
2022-10-22T09:13:30.227Z,79.44
2022-10-22T09:16:00.956Z,78.49
2022-10-22T09:18:42.270Z,78.63
2022-10-22T09:21:24.027Z,77.44
2022-10-22T09:24:00.930Z,77.17
2022-10-22T09:26:27.634Z,76.22
2022-10-22T09:28:54.058Z,76.23
2022-10-22T09:31:20.532Z,76.72
2022-10-22T09:33:48.952Z,77.12
2022-10-22T09:36:22.366Z,75.96
2022-10-22T09:38:53.242Z,74.91
2022-10-22T09:41:23.041Z,75.07
2022-10-22T09:43:49.789Z,74.56
2022-10-22T09:46:22.286Z,74.64
2022-10-22T09:48:57.923Z,74.51
2022-10-22T09:51:37.477Z,74.54
2022-10-22T09:54:18.509Z,74.62
2022-10-22T09:56:56.275Z,73.93
2022-10-22T09:59:29.855Z,73.79
2022-10-22T10:02:20.239Z,72.11
2022-10-22T10:04:53.147Z,69.63
2022-10-22T10:07:25.574Z,69.37
2022-10-22T10:09:53.909Z,68.83
2022-10-22T10:15:29.405Z,67.60
2022-10-22T10:18:15.654Z,67.75
2022-10-22T10:21:05.113Z,66.00
2022-10-22T10:23:41.878Z,66.54
2022-10-22T10:26:49.116Z,67.61
2022-10-22T10:29:26.446Z,66.94
2022-10-22T10:32:23.561Z,67.65
2022-10-22T10:35:04.163Z,66.89
2022-10-22T10:40:48.448Z,67.50
2022-10-22T10:43:40.407Z,65.06
2022-10-22T10:46:42.186Z,63.38
2022-10-22T10:49:16.653Z,64.33
2022-10-22T10:52:09.342Z,63.98
2022-10-22T10:54:55.663Z,65.04
2022-10-22T10:57:36.211Z,63.36
2022-10-22T11:00:16.153Z,62.82
2022-10-22T11:02:52.182Z,62.81
2022-10-22T11:05:21.638Z,60.25
2022-10-22T11:08:03.273Z,61.56
2022-10-22T11:10:54.830Z,62.48
2022-10-22T11:13:26.251Z,59.30
2022-10-22T11:16:03.044Z,61.21
2022-10-22T11:18:38.773Z,59.99
2022-10-22T11:21:17.873Z,58.62
2022-10-22T11:23:50.053Z,59.87
2022-10-22T11:26:29.075Z,59.34
2022-10-22T11:28:58.993Z,58.14
2022-10-22T11:31:26.018Z,60.55
2022-10-22T11:34:04.847Z,58.31
2022-10-22T11:36:43.450Z,59.02
2022-10-22T11:39:30.332Z,57.82
2022-10-22T11:41:59.525Z,58.03
2022-10-22T11:44:30.055Z,58.57
2022-10-22T11:46:58.500Z,55.11
2022-10-22T11:49:28.257Z,54.22
2022-10-22T11:52:22.962Z,52.21
2022-10-22T11:54:55.343Z,52.73
2022-10-22T11:57:26.686Z,51.92
2022-10-22T11:59:58.263Z,49.86
2022-10-22T12:02:39.085Z,51.76
2022-10-22T12:05:39.274Z,52.77
2022-10-22T12:08:16.297Z,52.73
2022-10-22T12:10:57.347Z,48.99
2022-10-22T12:13:27.620Z,51.06
2022-10-22T12:15:58.671Z,49.78
2022-10-22T12:18:41.003Z,51.50
2022-10-22T12:21:13.044Z,48.60
2022-10-22T12:23:39.852Z,47.28
2022-10-22T12:26:06.351Z,49.51
2022-10-22T12:28:41.637Z,48.71
2022-10-22T12:31:16.243Z,48.88
2022-10-22T12:33:42.674Z,48.14
2022-10-22T12:36:18.977Z,49.41
2022-10-22T12:38:49.230Z,47.23
2022-10-22T12:41:15.625Z,46.77
2022-10-22T12:43:42.079Z,48.29
2022-10-22T12:46:14.247Z,48.91
2022-10-22T12:48:44.133Z,49.84
2022-10-22T12:51:17.935Z,49.68
2022-10-22T12:53:47.905Z,49.67
2022-10-22T12:56:20.148Z,46.95
2022-10-22T12:58:52.777Z,48.44
2022-10-22T13:01:19.531Z,49.38
2022-10-22T13:03:52.470Z,50.00
2022-10-22T13:06:18.797Z,49.85
2022-10-22T13:09:17.339Z,50.39
2022-10-22T13:12:04.500Z,49.30
2022-10-22T13:14:36.131Z,48.47
2022-10-22T13:17:23.971Z,49.67
2022-10-22T13:19:53.062Z,48.29
2022-10-22T13:22:40.883Z,49.34
2022-10-22T13:25:17.070Z,46.16
2022-10-22T13:27:44.866Z,46.76
2022-10-22T13:30:20.127Z,46.70
2022-10-22T13:32:52.262Z,46.10
2022-10-22T13:35:23.211Z,48.09
2022-10-22T13:37:49.707Z,47.82
2022-10-22T13:40:16.479Z,45.47
2022-10-22T13:42:43.152Z,45.35
2022-10-22T13:45:09.950Z,46.15
2022-10-22T13:47:36.427Z,45.23
2022-10-22T13:50:10.198Z,47.41
2022-10-22T13:52:44.000Z,44.07
2022-10-22T13:55:16.350Z,45.11
2022-10-22T14:00:16.663Z,45.40
2022-10-22T14:02:44.712Z,45.70
2022-10-22T14:05:11.352Z,46.20
2022-10-22T14:07:39.998Z,45.40
2022-10-22T14:10:23.396Z,45.45
2022-10-22T14:12:53.373Z,43.66
2022-10-22T14:15:27.499Z,45.52
2022-10-22T14:17:57.423Z,40.83
2022-10-22T14:20:27.972Z,41.19
2022-10-22T14:22:54.892Z,33.44
2022-10-22T14:25:25.814Z,29.68
2022-10-22T14:27:52.317Z,32.55
2022-10-22T14:30:21.713Z,34.92
2022-10-22T14:32:48.823Z,37.23
2022-10-22T14:35:22.759Z,35.49
2022-10-22T14:37:49.871Z,37.12
2022-10-22T14:40:19.247Z,38.68
2022-10-22T14:42:48.265Z,36.37
2022-10-22T14:45:23.163Z,39.67
2022-10-22T14:47:51.230Z,40.87
2022-10-22T14:50:18.570Z,44.51
2022-10-22T14:52:45.378Z,43.98
2022-10-22T14:55:13.643Z,44.46
2022-10-22T14:57:40.976Z,43.75
2022-10-22T15:00:11.656Z,43.07
2022-10-22T15:02:38.075Z,42.38
2022-10-22T15:05:05.110Z,42.77
2022-10-22T15:07:31.502Z,44.49
2022-10-22T15:09:57.891Z,46.37
2022-10-22T15:12:24.377Z,45.49
2022-10-22T15:14:50.810Z,47.07
2022-10-22T15:17:18.121Z,48.39
2022-10-22T15:19:44.681Z,48.98
2022-10-22T15:22:12.472Z,49.03
2022-10-22T15:24:39.577Z,49.11
2022-10-22T15:27:06.464Z,49.99
2022-10-22T15:29:32.963Z,50.44
2022-10-22T15:32:00.410Z,50.77
2022-10-22T15:34:30.145Z,51.20
2022-10-22T15:36:59.246Z,52.59
2022-10-22T15:39:26.274Z,52.51
2022-10-22T15:41:54.119Z,53.03
2022-10-22T15:44:25.121Z,53.62
2022-10-22T15:46:51.847Z,54.48
2022-10-22T15:49:18.994Z,55.13
2022-10-22T15:51:45.547Z,56.18
2022-10-22T15:54:20.079Z,56.24
2022-10-22T15:56:46.729Z,56.66
2022-10-22T15:59:15.316Z,57.18
2022-10-22T16:01:42.754Z,57.92
2022-10-22T16:04:09.797Z,58.28
2022-10-22T16:06:42.173Z,58.59
2022-10-22T16:09:12.392Z,58.35
2022-10-22T16:11:41.422Z,59.22
2022-10-22T16:14:09.891Z,59.87
2022-10-22T16:16:39.353Z,60.18
2022-10-22T16:19:06.497Z,60.79
2022-10-22T16:21:32.907Z,61.88
2022-10-22T16:24:05.877Z,62.44
2022-10-22T16:26:33.467Z,62.67
2022-10-22T16:28:59.895Z,63.11
2022-10-22T16:31:26.473Z,63.78
2022-10-22T16:33:53.398Z,63.64
2022-10-22T16:36:21.127Z,63.77
2022-10-22T16:38:48.626Z,64.05
2022-10-22T16:41:20.814Z,64.66
2022-10-22T16:43:49.443Z,64.73
2022-10-22T16:46:17.568Z,64.58
2022-10-22T16:48:51.954Z,65.32
2022-10-22T16:51:21.598Z,65.90
2022-10-22T16:53:48.447Z,66.25
2022-10-22T16:56:16.657Z,66.61
2022-10-22T16:58:45.723Z,66.61
2022-10-22T17:01:15.886Z,66.96
2022-10-22T17:03:44.727Z,66.98
2022-10-22T17:06:11.900Z,67.64
2022-10-22T17:08:39.818Z,67.48
2022-10-22T17:11:17.254Z,67.80
2022-10-22T17:13:46.243Z,68.16
2022-10-22T17:16:15.482Z,67.21
2022-10-22T17:18:42.926Z,66.99
2022-10-22T17:21:11.147Z,67.94
2022-10-22T17:23:37.652Z,68.20
2022-10-22T17:26:07.253Z,67.51
2022-10-22T17:28:38.483Z,67.61
2022-10-22T17:31:21.702Z,67.62
2022-10-22T17:33:50.087Z,68.06
2022-10-22T17:36:17.989Z,68.59
2022-10-22T17:38:48.667Z,69.35
2022-10-22T17:41:17.913Z,69.38
2022-10-22T17:46:19.238Z,69.32
2022-10-22T17:48:49.906Z,69.32
2022-10-22T17:51:17.126Z,69.29
2022-10-22T17:53:45.680Z,68.78
2022-10-22T17:56:20.415Z,68.82
2022-10-22T17:58:47.234Z,69.12
2022-10-22T18:01:21.734Z,69.08
2022-10-22T18:03:48.565Z,68.82
2022-10-22T18:06:15.518Z,69.17
2022-10-22T18:08:42.027Z,69.28
2022-10-22T18:11:10.463Z,69.36
2022-10-22T18:13:37.117Z,69.45
2022-10-22T18:16:04.561Z,69.84
2022-10-22T18:18:31.078Z,69.86
2022-10-22T18:20:58.365Z,70.95
2022-10-22T18:23:24.815Z,72.60
2022-10-22T18:25:51.266Z,71.62
2022-10-22T18:28:19.166Z,70.64
2022-10-22T18:30:48.536Z,70.87
2022-10-22T18:33:17.214Z,71.53
2022-10-22T18:35:45.817Z,71.57
2022-10-22T18:38:12.341Z,71.36
2022-10-22T18:40:48.197Z,71.41
2022-10-22T18:43:15.227Z,71.86
2022-10-22T18:45:46.321Z,72.01
2022-10-22T18:48:15.299Z,72.46
2022-10-22T18:50:42.002Z,72.21
2022-10-22T18:53:08.419Z,72.14
2022-10-22T18:55:39.519Z,72.78
2022-10-22T18:58:06.471Z,72.94
2022-10-22T19:00:34.866Z,73.02
2022-10-22T19:03:03.050Z,72.12
2022-10-22T19:05:29.457Z,72.13
2022-10-22T19:07:55.842Z,71.72
2022-10-22T19:10:22.303Z,71.82
2022-10-22T19:12:48.677Z,72.51
2022-10-22T19:15:15.115Z,72.06
2022-10-22T19:17:41.836Z,71.92
2022-10-22T19:20:09.095Z,72.06
2022-10-22T19:22:35.589Z,72.23
2022-10-22T19:25:02.100Z,72.58
2022-10-22T19:27:28.568Z,72.91
2022-10-22T19:29:55.052Z,72.99
2022-10-22T19:32:21.684Z,72.57
2022-10-22T19:34:48.113Z,72.51
2022-10-22T19:37:14.731Z,72.83
2022-10-22T19:39:41.380Z,73.12
2022-10-22T19:42:07.821Z,73.13
2022-10-22T19:44:34.273Z,73.41
2022-10-22T19:47:00.658Z,73.69
2022-10-22T19:49:27.051Z,73.52
2022-10-22T19:51:53.457Z,73.45
2022-10-22T19:54:20.384Z,73.82
2022-10-22T19:56:47.798Z,74.08
2022-10-22T19:59:16.290Z,73.79
2022-10-22T20:01:43.183Z,73.56
2022-10-22T20:04:15.008Z,73.54
2022-10-22T20:06:41.571Z,73.94
2022-10-22T20:09:08.151Z,74.44
2022-10-22T20:11:34.831Z,74.93
2022-10-22T20:14:01.429Z,72.94
2022-10-22T20:16:29.910Z,71.49
2022-10-22T20:19:01.834Z,71.51
2022-10-22T20:21:28.446Z,71.64
2022-10-22T20:23:57.227Z,72.46
2022-10-22T20:26:28.018Z,71.92
2022-10-22T20:28:56.056Z,72.28
2022-10-22T20:31:24.987Z,72.55
2022-10-22T20:33:51.497Z,72.69
2022-10-22T20:36:20.881Z,73.07
2022-10-22T20:38:48.251Z,73.07
2022-10-22T20:41:20.725Z,73.40
2022-10-22T20:43:48.809Z,72.87
2022-10-22T20:46:22.859Z,73.40
2022-10-22T20:48:52.090Z,73.40
2022-10-22T20:51:18.761Z,72.68
2022-10-22T20:53:45.217Z,72.98
2022-10-22T20:56:12.601Z,73.24
2022-10-22T20:58:39.245Z,73.84
2022-10-22T21:01:10.461Z,74.12
2022-10-22T21:03:37.765Z,74.19
2022-10-22T21:06:05.312Z,74.60
2022-10-22T21:08:32.060Z,75.17
2022-10-22T21:10:58.643Z,74.96
2022-10-22T21:13:25.048Z,74.79
2022-10-22T21:15:51.484Z,74.36
2022-10-22T21:18:17.896Z,73.79
2022-10-22T21:20:44.295Z,73.60
2022-10-22T21:23:10.691Z,73.84
2022-10-22T21:25:40.740Z,73.88
2022-10-22T21:28:09.756Z,74.09
2022-10-22T21:30:36.155Z,74.01
2022-10-22T21:33:02.574Z,74.50
2022-10-22T21:35:29.431Z,74.39
2022-10-22T21:37:55.830Z,74.69
2022-10-22T21:40:22.230Z,74.63
2022-10-22T21:42:50.365Z,75.04
2022-10-22T21:45:19.941Z,75.68
2022-10-22T21:47:48.600Z,75.78
2022-10-22T21:50:15.138Z,75.65
2022-10-22T21:52:41.663Z,75.22
2022-10-22T21:55:08.648Z,75.19
2022-10-22T21:57:35.151Z,74.91
2022-10-22T22:00:01.754Z,74.73
2022-10-22T22:02:31.373Z,74.83
2022-10-22T22:04:57.822Z,74.77
2022-10-22T22:07:24.486Z,74.83
2022-10-22T22:09:50.975Z,75.19
2022-10-22T22:12:17.868Z,75.49
2022-10-22T22:14:44.450Z,75.00
2022-10-22T22:17:11.067Z,75.26
2022-10-22T22:19:40.197Z,75.36
2022-10-22T22:22:06.877Z,74.75
2022-10-22T22:24:33.419Z,75.00
2022-10-22T22:27:00.098Z,74.70
2022-10-22T22:29:26.482Z,76.23
2022-10-22T22:31:52.891Z,77.75
2022-10-22T22:34:19.397Z,78.84
2022-10-22T22:36:47.944Z,78.72
2022-10-22T22:39:17.566Z,79.88
2022-10-22T22:41:45.005Z,78.87
2022-10-22T22:44:12.163Z,77.73
2022-10-22T22:46:38.922Z,76.15
2022-10-22T22:49:05.958Z,76.06
2022-10-22T22:51:32.392Z,76.15
2022-10-22T22:54:00.081Z,76.81
2022-10-22T22:56:29.447Z,76.61
2022-10-22T22:58:56.472Z,76.43
2022-10-22T23:01:32.025Z,76.78
2022-10-22T23:04:01.417Z,76.54
2022-10-22T23:06:30.559Z,76.22
2022-10-22T23:08:57.315Z,76.24
2022-10-22T23:11:25.488Z,76.01
2022-10-22T23:13:54.482Z,76.27
2022-10-22T23:16:23.385Z,76.61
2022-10-22T23:18:50.749Z,76.88
2022-10-22T23:21:19.777Z,76.26
2022-10-22T23:23:49.128Z,76.50
2022-10-22T23:26:21.765Z,76.08
2022-10-22T23:28:48.686Z,76.52
2022-10-22T23:31:17.598Z,75.58
2022-10-22T23:33:44.544Z,75.42
2022-10-22T23:36:11.762Z,75.31
2022-10-22T23:38:39.677Z,75.80
2022-10-22T23:41:06.925Z,76.00
2022-10-22T23:43:37.641Z,76.58
2022-10-22T23:46:05.891Z,77.94
2022-10-22T23:48:32.439Z,78.48
2022-10-22T23:51:04.618Z,78.04
2022-10-22T23:53:31.065Z,76.56
2022-10-22T23:55:57.473Z,76.51
2022-10-22T23:58:23.922Z,76.36
